createdAt,value
2018-06-12T00:01:57.720Z,18.90
2018-06-12T00:04:26.862Z,18.90
2018-06-12T00:06:55.972Z,18.90
2018-06-12T00:09:24.874Z,18.90
2018-06-12T00:11:53.774Z,18.80
2018-06-12T00:14:22.666Z,18.80
2018-06-12T00:16:51.579Z,18.80
2018-06-12T00:19:20.486Z,18.80
2018-06-12T00:21:49.399Z,18.80
2018-06-12T00:24:18.326Z,18.80
2018-06-12T00:26:47.222Z,18.80
2018-06-12T00:29:16.137Z,18.80
2018-06-12T00:31:45.040Z,18.70
2018-06-12T00:34:13.958Z,18.70
2018-06-12T00:36:42.845Z,18.70
2018-06-12T00:39:11.754Z,18.70
2018-06-12T00:41:40.675Z,18.70
2018-06-12T00:44:09.572Z,18.70
2018-06-12T00:46:38.483Z,18.80
2018-06-12T00:49:07.386Z,18.70
2018-06-12T00:51:36.286Z,18.70
2018-06-12T00:54:05.226Z,18.70
2018-06-12T00:56:45.566Z,18.80
2018-06-12T00:59:14.466Z,18.90
2018-06-12T01:01:43.349Z,18.80
2018-06-12T01:04:12.262Z,18.80
2018-06-12T01:06:41.175Z,18.80
2018-06-12T01:09:10.087Z,18.80
2018-06-12T01:11:39.003Z,18.70
2018-06-12T01:14:07.901Z,18.70
2018-06-12T01:16:36.818Z,18.70
2018-06-12T01:19:05.810Z,18.70
2018-06-12T01:21:34.701Z,18.70
2018-06-12T01:24:03.644Z,18.70
2018-06-12T01:26:32.554Z,18.60
2018-06-12T01:29:01.458Z,18.70
2018-06-12T01:31:30.349Z,18.70
2018-06-12T01:33:59.269Z,18.60
2018-06-12T01:36:28.162Z,18.50
2018-06-12T01:38:57.074Z,18.40
2018-06-12T01:41:25.983Z,18.50
2018-06-12T01:43:54.992Z,18.60
2018-06-12T01:46:23.882Z,18.60
2018-06-12T01:48:52.774Z,18.50
2018-06-12T01:51:21.662Z,18.60
2018-06-12T01:53:50.574Z,18.50
2018-06-12T01:56:19.454Z,18.40
2018-06-12T01:58:48.410Z,18.40
2018-06-12T02:01:17.332Z,18.40
2018-06-12T02:03:46.230Z,18.20
2018-06-12T02:06:15.106Z,18.30
2018-06-12T02:08:44.023Z,18.20
2018-06-12T02:11:12.911Z,18.20
2018-06-12T02:13:41.814Z,18.00
2018-06-12T02:16:10.726Z,17.90
2018-06-12T02:18:39.630Z,17.80
2018-06-12T02:21:08.518Z,17.90
2018-06-12T02:23:37.447Z,17.90
2018-06-12T02:28:34.834Z,17.90
2018-06-12T02:31:03.749Z,17.90
2018-06-12T02:33:32.651Z,17.80
2018-06-12T02:36:01.563Z,17.70
2018-06-12T02:38:30.480Z,17.70
2018-06-12T02:40:59.383Z,17.60
2018-06-12T02:43:28.280Z,17.50
2018-06-12T02:45:57.178Z,17.50
2018-06-12T02:48:26.095Z,17.40
2018-06-12T02:50:54.999Z,17.30
2018-06-12T02:53:23.904Z,17.20
2018-06-12T02:55:52.796Z,17.20
2018-06-12T02:58:21.687Z,17.10
2018-06-12T03:00:50.570Z,17.20
2018-06-12T03:03:19.466Z,17.20
2018-06-12T03:05:48.359Z,17.20
2018-06-12T03:08:17.280Z,17.20
2018-06-12T03:10:46.171Z,17.10
2018-06-12T03:13:15.065Z,17.00
2018-06-12T03:15:43.948Z,17.00
2018-06-12T03:18:12.846Z,17.00
2018-06-12T03:20:45.447Z,17.00
2018-06-12T03:23:14.362Z,17.00
2018-06-12T03:25:43.240Z,17.00
2018-06-12T03:28:12.179Z,17.00
2018-06-12T03:30:41.067Z,17.10
2018-06-12T03:33:09.978Z,17.10
2018-06-12T03:35:38.894Z,17.10
2018-06-12T03:38:07.798Z,17.00
2018-06-12T03:40:36.719Z,17.00
2018-06-12T03:43:05.599Z,17.00
2018-06-12T03:45:34.535Z,16.90
2018-06-12T03:48:03.457Z,16.90
2018-06-12T03:50:32.362Z,17.00
2018-06-12T03:53:01.270Z,17.10
2018-06-12T03:55:30.205Z,17.20
2018-06-12T03:57:59.171Z,17.00
2018-06-12T04:00:28.075Z,17.10
2018-06-12T04:02:56.954Z,17.10
2018-06-12T04:05:25.846Z,17.10
2018-06-12T04:07:54.752Z,17.20
2018-06-12T04:10:23.631Z,17.30
2018-06-12T04:12:52.523Z,17.20
2018-06-12T04:15:21.426Z,17.20
2018-06-12T04:17:50.340Z,17.10
2018-06-12T04:20:19.218Z,17.10
2018-06-12T04:22:48.116Z,17.10
2018-06-12T04:25:16.995Z,17.00
2018-06-12T04:30:14.395Z,17.10
2018-06-12T04:32:43.291Z,17.10
2018-06-12T04:35:12.200Z,17.10
2018-06-12T04:40:09.591Z,16.90
2018-06-12T04:42:38.577Z,17.00
2018-06-12T04:45:07.497Z,16.80
2018-06-12T04:47:36.390Z,17.00
2018-06-12T04:50:05.359Z,17.00
2018-06-12T04:52:34.238Z,17.10
2018-06-12T04:55:03.158Z,17.10
2018-06-12T04:57:32.390Z,17.00
2018-06-12T05:00:01.353Z,17.10
2018-06-12T05:02:30.215Z,17.20
2018-06-12T05:04:59.176Z,17.30
2018-06-12T05:07:28.222Z,17.40
2018-06-12T05:09:57.114Z,17.50
2018-06-12T05:12:26.028Z,17.50
2018-06-12T05:14:54.934Z,17.30
2018-06-12T05:17:23.822Z,17.30
2018-06-12T05:19:52.804Z,17.20
2018-06-12T05:22:21.702Z,17.30
2018-06-12T05:24:50.729Z,17.40
2018-06-12T05:27:19.594Z,17.50
2018-06-12T05:29:48.506Z,17.50
2018-06-12T05:32:17.409Z,17.60
2018-06-12T05:34:46.339Z,17.40
2018-06-12T05:37:15.227Z,17.50
2018-06-12T05:39:44.145Z,17.70
2018-06-12T05:42:13.051Z,17.80
2018-06-12T05:44:42.034Z,17.80
2018-06-12T05:47:10.926Z,17.70
2018-06-12T05:52:08.323Z,17.70
2018-06-12T05:54:37.206Z,17.60
2018-06-12T05:57:06.118Z,17.60
2018-06-12T05:59:35.038Z,17.60
2018-06-12T06:02:04.055Z,17.50
2018-06-12T06:04:32.978Z,17.40
2018-06-12T06:07:01.876Z,17.30
2018-06-12T06:09:30.853Z,17.50
2018-06-12T06:11:59.755Z,17.70
2018-06-12T06:14:28.638Z,17.90
2018-06-12T06:16:57.531Z,17.90
2018-06-12T06:19:26.439Z,18.00
2018-06-12T06:21:55.334Z,17.90
2018-06-12T06:24:24.282Z,18.10
2018-06-12T06:26:53.176Z,18.40
2018-06-12T06:29:22.059Z,18.50
2018-06-12T06:31:50.940Z,18.60
2018-06-12T06:34:19.818Z,18.50
2018-06-12T06:36:48.722Z,18.70
2018-06-12T06:39:17.919Z,18.70
2018-06-12T06:41:46.806Z,18.70
2018-06-12T06:44:15.697Z,19.00
2018-06-12T06:46:44.585Z,19.10
2018-06-12T06:49:13.483Z,18.90
2018-06-12T06:51:42.370Z,18.80
2018-06-12T06:54:11.251Z,18.80
2018-06-12T06:56:40.154Z,18.70
2018-06-12T06:59:09.047Z,18.80
2018-06-12T07:01:37.938Z,19.00
2018-06-12T07:04:06.843Z,18.90
2018-06-12T07:09:07.242Z,19.20
2018-06-12T07:11:36.165Z,19.30
2018-06-12T07:14:05.134Z,19.50
2018-06-12T07:16:34.047Z,19.50
2018-06-12T07:19:02.926Z,19.50
2018-06-12T07:24:00.335Z,19.70
2018-06-12T07:26:29.264Z,19.90
2018-06-12T07:28:58.148Z,19.80
2018-06-12T07:31:27.040Z,19.80
2018-06-12T07:36:24.458Z,19.60
2018-06-12T07:38:53.330Z,19.70
2018-06-12T07:41:23.030Z,19.90
2018-06-12T07:43:51.958Z,19.90
2018-06-12T07:46:20.842Z,20.10
2018-06-12T07:48:49.758Z,20.20
2018-06-12T07:51:18.626Z,20.20
2018-06-12T07:53:47.536Z,20.10
2018-06-12T07:56:16.414Z,20.00
2018-06-12T07:58:45.314Z,20.00
2018-06-12T08:01:14.203Z,19.90
2018-06-12T08:06:11.599Z,19.90
2018-06-12T08:08:40.506Z,19.90
2018-06-12T08:11:09.392Z,19.90
2018-06-12T08:13:38.334Z,20.10
2018-06-12T08:16:07.250Z,20.30
2018-06-12T08:18:36.162Z,20.10
2018-06-12T08:21:05.046Z,20.00
2018-06-12T08:23:33.947Z,20.10
2018-06-12T08:26:05.962Z,20.30
2018-06-12T08:28:34.861Z,20.30
2018-06-12T08:31:03.778Z,20.10
2018-06-12T08:33:32.682Z,20.10
2018-06-12T08:36:01.611Z,20.20
2018-06-12T08:38:30.519Z,20.20
2018-06-12T08:40:59.414Z,20.10
2018-06-12T08:43:28.315Z,20.40
2018-06-12T08:45:57.235Z,20.40
2018-06-12T08:48:26.133Z,20.60
2018-06-12T08:50:55.005Z,20.70
2018-06-12T08:53:23.899Z,20.80
2018-06-12T08:55:52.795Z,20.70
2018-06-12T08:58:21.694Z,20.50
2018-06-12T09:00:50.591Z,20.60
2018-06-12T09:03:19.478Z,20.70
2018-06-12T09:05:48.356Z,21.00
2018-06-12T09:08:17.255Z,20.80
2018-06-12T09:10:46.135Z,20.80
2018-06-12T09:13:15.046Z,20.90
2018-06-12T09:15:43.930Z,20.70
2018-06-12T09:18:12.822Z,20.50
2018-06-12T09:20:41.707Z,20.40
2018-06-12T09:23:10.594Z,20.90
2018-06-12T09:25:39.478Z,21.10
2018-06-12T09:28:08.379Z,21.40
2018-06-12T09:30:37.263Z,21.40
2018-06-12T09:33:06.250Z,21.50
2018-06-12T09:35:35.146Z,21.30
2018-06-12T09:38:04.058Z,21.10
2018-06-12T09:40:33.126Z,21.00
2018-06-12T09:43:02.294Z,21.20
2018-06-12T09:45:31.239Z,21.30
2018-06-12T09:48:01.079Z,21.20
2018-06-12T09:50:29.974Z,21.00
2018-06-12T09:52:58.867Z,21.30
2018-06-12T09:55:27.759Z,21.60
2018-06-12T09:57:56.648Z,21.70
2018-06-12T10:01:33.498Z,21.60
2018-06-12T10:04:02.422Z,21.90
2018-06-12T10:06:31.302Z,22.00
2018-06-12T10:09:00.206Z,21.90
2018-06-12T10:11:29.118Z,21.70
2018-06-12T10:13:58.024Z,21.70
2018-06-12T10:16:27.030Z,22.10
2018-06-12T10:18:55.981Z,22.40
2018-06-12T10:21:24.832Z,22.70
2018-06-12T10:23:53.745Z,22.70
2018-06-12T10:26:22.613Z,22.70
2018-06-12T10:28:51.497Z,22.80
2018-06-12T10:31:20.387Z,22.90
2018-06-12T10:33:49.279Z,22.80
2018-06-12T10:36:18.630Z,22.70
2018-06-12T10:38:47.527Z,22.90
2018-06-12T10:41:16.800Z,22.80
2018-06-12T10:43:45.745Z,22.60
2018-06-12T10:46:14.607Z,22.50
2018-06-12T10:48:43.514Z,22.40
2018-06-12T10:51:12.399Z,22.30
2018-06-12T10:53:41.299Z,22.40
2018-06-12T10:56:10.182Z,22.60
2018-06-12T10:58:39.087Z,22.70
2018-06-12T11:01:08.019Z,22.90
2018-06-12T11:03:37.063Z,23.20
2018-06-12T11:06:05.903Z,23.30
2018-06-12T11:08:34.797Z,23.70
2018-06-12T11:11:03.723Z,23.80
2018-06-12T11:13:32.626Z,24.40
2018-06-12T11:16:01.529Z,24.60
2018-06-12T11:18:30.398Z,24.40
2018-06-12T11:20:59.314Z,24.40
2018-06-12T11:23:28.191Z,23.90
2018-06-12T11:25:57.087Z,23.80
2018-06-12T11:28:25.962Z,23.30
2018-06-12T11:30:54.866Z,23.50
2018-06-12T11:33:23.755Z,23.80
2018-06-12T11:38:21.170Z,24.30
2018-06-12T11:40:50.066Z,24.30
2018-06-12T11:43:18.948Z,24.00
2018-06-12T11:45:47.850Z,24.00
2018-06-12T11:48:16.758Z,24.10
2018-06-12T11:50:45.652Z,24.30
2018-06-12T11:53:14.563Z,24.30
2018-06-12T11:58:11.977Z,24.60
2018-06-12T12:00:40.874Z,24.60
2018-06-12T12:03:09.764Z,24.60
2018-06-12T12:08:07.158Z,24.80
2018-06-12T12:10:36.066Z,24.90
2018-06-12T12:13:05.027Z,24.60
2018-06-12T12:15:33.965Z,24.50
2018-06-12T12:18:02.889Z,24.40
2018-06-12T12:20:31.787Z,24.40
2018-06-12T12:23:00.666Z,24.40
2018-06-12T12:25:29.573Z,24.20
2018-06-12T12:27:58.430Z,23.90
2018-06-12T12:30:27.347Z,23.80
2018-06-12T12:32:56.323Z,23.60
2018-06-12T12:35:25.224Z,23.40
2018-06-12T12:37:54.078Z,23.40
2018-06-12T12:40:22.982Z,23.30
2018-06-12T12:42:51.894Z,23.30
2018-06-12T12:45:20.795Z,23.20
2018-06-12T12:47:49.671Z,23.20
2018-06-12T12:50:18.569Z,23.30
2018-06-12T12:52:47.463Z,23.20
2018-06-12T12:55:16.430Z,23.30
2018-06-12T12:57:45.327Z,23.30
2018-06-12T13:00:14.227Z,23.50
2018-06-12T13:02:43.106Z,23.40
2018-06-12T13:05:12.030Z,23.20
2018-06-12T13:07:40.930Z,23.30
2018-06-12T13:10:09.865Z,23.30
2018-06-12T13:12:38.766Z,23.20
2018-06-12T13:15:07.696Z,23.20
2018-06-12T13:17:36.594Z,23.00
2018-06-12T13:20:05.558Z,22.80
2018-06-12T13:22:34.450Z,22.80
2018-06-12T13:25:03.394Z,22.80
2018-06-12T13:27:32.394Z,23.00
2018-06-12T13:30:01.302Z,23.30
2018-06-12T13:32:30.211Z,23.40
2018-06-12T13:34:59.078Z,23.80
2018-06-12T13:37:27.971Z,23.80
2018-06-12T13:39:56.854Z,24.20
2018-06-12T13:42:25.758Z,24.30
2018-06-12T13:44:54.646Z,24.40
2018-06-12T13:47:23.539Z,24.80
2018-06-12T13:49:52.424Z,25.40
2018-06-12T13:52:21.306Z,25.90
2018-06-12T13:54:50.213Z,25.90
2018-06-12T13:57:19.090Z,25.40
2018-06-12T13:59:47.994Z,25.70
2018-06-12T14:02:16.886Z,25.90
2018-06-12T14:04:45.846Z,26.20
2018-06-12T14:07:14.746Z,26.30
2018-06-12T14:09:43.626Z,26.70
2018-06-12T14:12:12.535Z,26.90
2018-06-12T14:14:41.411Z,27.10
2018-06-12T14:17:10.316Z,27.10
2018-06-12T14:19:39.198Z,27.80
2018-06-12T14:22:08.091Z,28.20
2018-06-12T14:24:36.996Z,28.30
2018-06-12T14:27:05.901Z,28.30
2018-06-12T14:29:34.795Z,27.60
2018-06-12T14:32:03.785Z,27.00
2018-06-12T14:34:32.690Z,26.50
2018-06-12T14:37:01.575Z,26.30
2018-06-12T14:39:30.481Z,26.10
2018-06-12T14:41:59.410Z,25.90
2018-06-12T14:44:28.302Z,25.50
2018-06-12T14:46:57.210Z,25.30
2018-06-12T14:49:26.162Z,25.10
2018-06-12T14:51:55.046Z,24.90
2018-06-12T14:54:23.942Z,24.30
2018-06-12T14:56:52.875Z,23.90
2018-06-12T14:59:21.759Z,23.40
2018-06-12T15:01:50.658Z,23.40
2018-06-12T15:04:19.602Z,23.50
2018-06-12T15:06:48.518Z,23.80
2018-06-12T15:09:17.443Z,24.00
2018-06-12T15:11:46.734Z,23.90
2018-06-12T15:14:15.622Z,23.80
2018-06-12T15:16:44.527Z,24.10
2018-06-12T15:19:13.459Z,24.90
2018-06-12T15:21:42.363Z,25.30
2018-06-12T15:24:11.262Z,24.70
2018-06-12T15:26:40.199Z,24.20
2018-06-12T15:29:09.118Z,24.00
2018-06-12T15:31:38.027Z,23.80
2018-06-12T15:34:06.963Z,23.80
2018-06-12T15:36:35.858Z,23.70
2018-06-12T15:39:07.437Z,23.30
2018-06-12T15:41:37.068Z,23.00
2018-06-12T15:44:06.074Z,23.10
2018-06-12T15:46:35.012Z,23.30
2018-06-12T15:49:03.939Z,23.00
2018-06-12T15:51:32.891Z,23.20
2018-06-12T15:54:01.840Z,23.40
2018-06-12T15:56:30.746Z,23.50
2018-06-12T15:58:59.633Z,23.20
2018-06-12T16:01:28.542Z,22.90
2018-06-12T16:03:57.431Z,22.90
2018-06-12T16:06:26.351Z,23.00
2018-06-12T16:08:55.266Z,23.10
2018-06-12T16:11:24.318Z,23.20
2018-06-12T16:13:53.211Z,23.60
2018-06-12T16:16:22.123Z,23.90
2018-06-12T16:18:52.152Z,24.30
2018-06-12T16:21:21.047Z,24.60
2018-06-12T16:23:49.932Z,24.90
2018-06-12T16:26:18.846Z,25.00
2018-06-12T16:28:47.795Z,25.20
2018-06-12T16:31:16.682Z,25.10
2018-06-12T16:33:45.591Z,25.00
2018-06-12T16:36:14.487Z,24.70
2018-06-12T16:38:43.391Z,24.40
2018-06-12T16:41:12.337Z,24.00
2018-06-12T16:43:41.281Z,24.10
2018-06-12T16:46:10.204Z,24.00
2018-06-12T16:48:39.190Z,23.90
2018-06-12T16:51:08.091Z,23.20
2018-06-12T16:53:37.027Z,22.80
2018-06-12T16:56:05.967Z,22.60
2018-06-12T16:58:34.927Z,22.40
2018-06-12T17:01:03.874Z,22.40
2018-06-12T17:03:32.767Z,22.20
2018-06-12T17:06:01.664Z,22.10
2018-06-12T17:08:30.610Z,22.00
2018-06-12T17:10:59.534Z,21.80
2018-06-12T17:13:28.443Z,21.80
2018-06-12T17:15:57.339Z,21.70
2018-06-12T17:18:26.254Z,21.70
2018-06-12T17:20:55.139Z,21.60
2018-06-12T17:23:24.098Z,21.30
2018-06-12T17:25:52.990Z,21.30
2018-06-12T17:28:21.894Z,21.20
2018-06-12T17:30:50.802Z,21.00
2018-06-12T17:33:19.714Z,21.00
2018-06-12T17:35:48.631Z,21.00
2018-06-12T17:38:17.526Z,21.00
2018-06-12T17:43:14.945Z,20.80
2018-06-12T17:45:43.826Z,20.80
2018-06-12T17:48:12.719Z,20.70
2018-06-12T17:53:10.142Z,20.70
2018-06-12T17:55:41.098Z,20.70
2018-06-12T17:58:10.038Z,20.60
2018-06-12T18:00:39.037Z,20.40
2018-06-12T18:03:08.127Z,20.50
2018-06-12T18:05:37.014Z,20.60
2018-06-12T18:08:05.938Z,20.50
2018-06-12T18:10:34.931Z,20.60
2018-06-12T18:15:32.371Z,20.90
2018-06-12T18:18:01.279Z,20.80
2018-06-12T18:20:30.383Z,20.80
2018-06-12T18:22:59.284Z,20.60
2018-06-12T18:25:28.201Z,20.50
2018-06-12T18:27:57.089Z,20.50
2018-06-12T18:30:25.994Z,20.30
2018-06-12T18:32:54.866Z,20.20
2018-06-12T18:35:23.916Z,20.00
2018-06-12T18:37:52.891Z,20.00
2018-06-12T18:40:21.846Z,19.90
2018-06-12T18:42:50.739Z,20.00
2018-06-12T18:45:19.646Z,19.90
2018-06-12T18:47:48.551Z,19.80
2018-06-12T18:50:17.455Z,18.50
2018-06-12T18:52:46.347Z,19.60
2018-06-12T18:55:15.249Z,19.60
2018-06-12T18:57:44.142Z,19.80
2018-06-12T19:00:13.047Z,19.70
2018-06-12T19:02:42.121Z,19.70
2018-06-12T19:05:11.054Z,19.70
2018-06-12T19:07:39.978Z,19.70
2018-06-12T19:10:08.894Z,19.70
2018-06-12T19:12:37.796Z,19.70
2018-06-12T19:15:06.714Z,19.70
2018-06-12T19:17:35.745Z,19.70
2018-06-12T19:20:04.693Z,19.70
2018-06-12T19:22:33.607Z,19.60
2018-06-12T19:25:02.612Z,19.50
2018-06-12T19:27:31.511Z,19.60
2018-06-12T19:30:00.415Z,19.50
2018-06-12T19:32:29.340Z,19.60
2018-06-12T19:34:58.256Z,19.50
2018-06-12T19:39:55.654Z,19.30
2018-06-12T19:42:24.578Z,19.30
2018-06-12T19:44:53.488Z,19.20
2018-06-12T19:47:22.455Z,19.10
2018-06-12T19:49:51.355Z,19.20
2018-06-12T19:52:20.315Z,19.30
2018-06-12T19:54:49.324Z,19.30
2018-06-12T19:57:18.219Z,19.20
2018-06-12T19:59:47.130Z,19.20
2018-06-12T20:02:16.036Z,19.20
2018-06-12T20:04:45.069Z,19.20
2018-06-12T20:07:13.998Z,19.20
2018-06-12T20:12:11.412Z,19.20
2018-06-12T20:14:40.333Z,19.20
2018-06-12T20:17:09.291Z,19.20
2018-06-12T20:19:38.412Z,19.20
2018-06-12T20:22:07.329Z,19.20
2018-06-12T20:24:36.380Z,19.10
2018-06-12T20:27:05.548Z,19.20
2018-06-12T20:29:34.442Z,19.20
2018-06-12T20:32:03.407Z,19.20
2018-06-12T20:37:02.203Z,19.10
2018-06-12T20:39:31.105Z,19.10
2018-06-12T20:42:00.016Z,19.10
2018-06-12T20:44:28.907Z,18.90
2018-06-12T20:46:57.809Z,18.90
2018-06-12T20:49:26.700Z,18.90
2018-06-12T20:51:55.594Z,18.80
2018-06-12T20:54:24.562Z,18.80
2018-06-12T20:56:53.550Z,18.80
2018-06-12T20:59:22.450Z,18.70
2018-06-12T21:01:51.358Z,18.60
2018-06-12T21:04:20.234Z,18.60
2018-06-12T21:06:49.250Z,18.50
2018-06-12T21:09:18.388Z,18.50
2018-06-12T21:14:15.888Z,18.20
2018-06-12T21:16:44.870Z,18.10
2018-06-12T21:19:13.754Z,18.10
2018-06-12T21:21:42.685Z,18.10
2018-06-12T21:24:11.570Z,18.10
2018-06-12T21:26:40.512Z,18.10
2018-06-12T21:29:09.442Z,18.20
2018-06-12T21:31:38.440Z,18.10
2018-06-12T21:34:08.366Z,18.10
2018-06-12T21:36:37.307Z,18.10
2018-06-12T21:41:36.053Z,17.90
2018-06-12T21:44:04.940Z,17.90
2018-06-12T21:46:33.907Z,17.90
2018-06-12T21:49:02.831Z,17.90
2018-06-12T21:51:31.769Z,17.80
2018-06-12T21:54:00.678Z,17.70
2018-06-12T21:56:29.575Z,17.60
2018-06-12T21:58:58.498Z,17.60
2018-06-12T22:01:27.490Z,17.60
2018-06-12T22:03:56.387Z,17.50
2018-06-12T22:06:25.367Z,17.60
2018-06-12T22:08:54.318Z,17.50
2018-06-12T22:11:23.223Z,17.50
2018-06-12T22:13:52.135Z,17.40
2018-06-12T22:16:22.323Z,17.50
2018-06-12T22:18:51.555Z,17.50
2018-06-12T22:21:20.534Z,17.50
2018-06-12T22:23:49.549Z,17.60
2018-06-12T22:26:18.414Z,17.50
2018-06-12T22:28:47.302Z,17.50
2018-06-12T22:31:17.111Z,17.50
2018-06-12T22:33:46.447Z,17.50
2018-06-12T22:36:15.339Z,17.50
2018-06-12T22:38:44.246Z,17.50
2018-06-12T22:41:13.134Z,17.40
2018-06-12T22:43:42.023Z,17.40
2018-06-12T22:46:10.906Z,17.40
2018-06-12T22:48:39.811Z,17.40
2018-06-12T22:51:08.722Z,17.40
2018-06-12T22:53:37.685Z,17.50
2018-06-12T22:56:06.666Z,17.60
2018-06-12T22:58:35.726Z,17.50
2018-06-12T23:01:04.670Z,17.50
2018-06-12T23:03:33.600Z,17.40
2018-06-12T23:06:02.498Z,17.40
2018-06-12T23:08:31.420Z,17.30
2018-06-12T23:11:00.359Z,17.20
2018-06-12T23:13:29.251Z,17.20
2018-06-12T23:15:58.188Z,17.20
2018-06-12T23:18:27.078Z,17.30
2018-06-12T23:22:07.867Z,17.20
2018-06-12T23:24:36.779Z,17.20
2018-06-12T23:27:05.825Z,17.20
2018-06-12T23:29:34.715Z,17.20
2018-06-12T23:32:03.626Z,17.10
2018-06-12T23:34:32.544Z,17.20
2018-06-12T23:37:01.426Z,17.20
2018-06-12T23:39:30.392Z,17.10
2018-06-12T23:41:59.221Z,17.10
2018-06-12T23:44:28.123Z,17.20
2018-06-12T23:46:57.018Z,17.10
2018-06-12T23:49:25.934Z,17.00
2018-06-12T23:54:23.354Z,17.10
2018-06-12T23:56:52.270Z,17.10
2018-06-12T23:59:21.162Z,17.10
